sensor_id;sensor_type;location;lat;lon;timestamp;P1;durP1;ratioP1;P2;durP2;ratioP2
15327;SDS011;7764;51.430;6.840;2023-02-15T00:01:58;37.77;;;23.43;;
15327;SDS011;7764;51.430;6.840;2023-02-15T00:04:25;35.67;;;22.50;;
15327;SDS011;7764;51.430;6.840;2023-02-15T00:07:12;37.70;;;23.77;;
15327;SDS011;7764;51.430;6.840;2023-02-15T00:09:40;36.40;;;23.10;;
15327;SDS011;7764;51.430;6.840;2023-02-15T00:12:07;38.70;;;23.00;;
15327;SDS011;7764;51.430;6.840;2023-02-15T00:14:34;38.03;;;23.93;;
15327;SDS011;7764;51.430;6.840;2023-02-15T00:17:01;41.47;;;24.13;;
15327;SDS011;7764;51.430;6.840;2023-02-15T00:19:28;41.03;;;24.80;;
15327;SDS011;7764;51.430;6.840;2023-02-15T00:21:55;38.70;;;24.10;;
15327;SDS011;7764;51.430;6.840;2023-02-15T00:24:23;39.80;;;23.57;;
15327;SDS011;7764;51.430;6.840;2023-02-15T00:26:50;42.93;;;24.50;;
15327;SDS011;7764;51.430;6.840;2023-02-15T00:29:18;40.53;;;25.53;;
15327;SDS011;7764;51.430;6.840;2023-02-15T00:31:45;39.77;;;25.13;;
15327;SDS011;7764;51.430;6.840;2023-02-15T00:34:13;41.80;;;24.60;;
15327;SDS011;7764;51.430;6.840;2023-02-15T00:36:42;44.23;;;25.50;;
15327;SDS011;7764;51.430;6.840;2023-02-15T00:39:09;40.67;;;25.57;;
15327;SDS011;7764;51.430;6.840;2023-02-15T00:41:38;41.17;;;24.97;;
15327;SDS011;7764;51.430;6.840;2023-02-15T00:44:05;42.63;;;25.17;;
15327;SDS011;7764;51.430;6.840;2023-02-15T00:46:33;41.60;;;25.60;;
15327;SDS011;7764;51.430;6.840;2023-02-15T00:49:00;44.97;;;26.97;;
15327;SDS011;7764;51.430;6.840;2023-02-15T00:51:27;44.20;;;26.70;;
15327;SDS011;7764;51.430;6.840;2023-02-15T00:53:54;44.63;;;25.97;;
15327;SDS011;7764;51.430;6.840;2023-02-15T00:56:21;44.13;;;26.53;;
15327;SDS011;7764;51.430;6.840;2023-02-15T00:58:49;44.90;;;26.70;;
15327;SDS011;7764;51.430;6.840;2023-02-15T01:01:17;40.30;;;24.30;;
15327;SDS011;7764;51.430;6.840;2023-02-15T01:03:45;43.70;;;26.40;;
15327;SDS011;7764;51.430;6.840;2023-02-15T01:06:13;44.27;;;26.43;;
15327;SDS011;7764;51.430;6.840;2023-02-15T01:08:40;41.63;;;26.10;;
15327;SDS011;7764;51.430;6.840;2023-02-15T01:11:08;41.17;;;26.77;;
15327;SDS011;7764;51.430;6.840;2023-02-15T01:13:37;40.33;;;26.30;;
15327;SDS011;7764;51.430;6.840;2023-02-15T01:16:05;44.67;;;26.37;;
15327;SDS011;7764;51.430;6.840;2023-02-15T01:18:32;43.87;;;26.50;;
15327;SDS011;7764;51.430;6.840;2023-02-15T01:20:59;44.07;;;26.40;;
15327;SDS011;7764;51.430;6.840;2023-02-15T01:23:34;43.27;;;26.10;;
15327;SDS011;7764;51.430;6.840;2023-02-15T01:26:01;43.13;;;26.97;;
15327;SDS011;7764;51.430;6.840;2023-02-15T01:28:28;44.30;;;25.90;;
15327;SDS011;7764;51.430;6.840;2023-02-15T01:30:55;44.03;;;27.00;;
15327;SDS011;7764;51.430;6.840;2023-02-15T01:33:23;44.07;;;27.37;;
15327;SDS011;7764;51.430;6.840;2023-02-15T01:35:55;42.43;;;26.53;;
15327;SDS011;7764;51.430;6.840;2023-02-15T01:38:23;45.73;;;27.57;;
15327;SDS011;7764;51.430;6.840;2023-02-15T01:40:50;42.47;;;26.27;;
15327;SDS011;7764;51.430;6.840;2023-02-15T01:43:17;45.17;;;26.93;;
15327;SDS011;7764;51.430;6.840;2023-02-15T01:45:45;47.27;;;28.13;;
15327;SDS011;7764;51.430;6.840;2023-02-15T01:48:17;44.73;;;27.07;;
15327;SDS011;7764;51.430;6.840;2023-02-15T01:50:49;44.37;;;27.03;;
15327;SDS011;7764;51.430;6.840;2023-02-15T01:53:20;48.60;;;27.20;;
15327;SDS011;7764;51.430;6.840;2023-02-15T01:55:52;45.47;;;27.93;;
15327;SDS011;7764;51.430;6.840;2023-02-15T01:58:21;47.67;;;27.20;;
15327;SDS011;7764;51.430;6.840;2023-02-15T02:00:50;46.03;;;27.37;;
15327;SDS011;7764;51.430;6.840;2023-02-15T02:03:16;48.40;;;27.57;;
15327;SDS011;7764;51.430;6.840;2023-02-15T02:05:46;43.77;;;27.50;;
15327;SDS011;7764;51.430;6.840;2023-02-15T02:08:15;45.97;;;27.37;;
15327;SDS011;7764;51.430;6.840;2023-02-15T02:10:42;46.87;;;27.60;;
15327;SDS011;7764;51.430;6.840;2023-02-15T02:13:09;44.53;;;27.53;;
15327;SDS011;7764;51.430;6.840;2023-02-15T02:15:38;44.03;;;26.80;;
15327;SDS011;7764;51.430;6.840;2023-02-15T02:18:14;45.77;;;26.83;;
15327;SDS011;7764;51.430;6.840;2023-02-15T02:24:00;47.03;;;27.43;;
15327;SDS011;7764;51.430;6.840;2023-02-15T02:26:49;45.17;;;27.13;;
15327;SDS011;7764;51.430;6.840;2023-02-15T02:29:43;46.37;;;26.97;;
15327;SDS011;7764;51.430;6.840;2023-02-15T02:35:33;48.03;;;26.90;;
15327;SDS011;7764;51.430;6.840;2023-02-15T02:38:08;43.90;;;27.27;;
15327;SDS011;7764;51.430;6.840;2023-02-15T02:40:48;45.93;;;28.13;;
15327;SDS011;7764;51.430;6.840;2023-02-15T02:43:22;45.60;;;28.07;;
15327;SDS011;7764;51.430;6.840;2023-02-15T02:45:56;48.67;;;28.37;;
15327;SDS011;7764;51.430;6.840;2023-02-15T02:48:27;47.17;;;28.90;;
15327;SDS011;7764;51.430;6.840;2023-02-15T02:50:58;46.30;;;27.70;;
15327;SDS011;7764;51.430;6.840;2023-02-15T02:53:25;45.60;;;27.63;;
15327;SDS011;7764;51.430;6.840;2023-02-15T02:55:55;43.93;;;27.70;;
15327;SDS011;7764;51.430;6.840;2023-02-15T02:58:25;47.87;;;28.43;;
15327;SDS011;7764;51.430;6.840;2023-02-15T03:00:56;48.47;;;27.60;;
15327;SDS011;7764;51.430;6.840;2023-02-15T03:03:29;47.97;;;28.43;;
15327;SDS011;7764;51.430;6.840;2023-02-15T03:06:03;49.27;;;28.30;;
15327;SDS011;7764;51.430;6.840;2023-02-15T03:08:39;47.27;;;28.37;;
15327;SDS011;7764;51.430;6.840;2023-02-15T03:11:09;48.57;;;29.10;;
15327;SDS011;7764;51.430;6.840;2023-02-15T03:13:38;47.77;;;28.90;;
15327;SDS011;7764;51.430;6.840;2023-02-15T03:16:06;47.67;;;28.47;;
15327;SDS011;7764;51.430;6.840;2023-02-15T03:18:55;49.33;;;28.73;;
15327;SDS011;7764;51.430;6.840;2023-02-15T03:21:27;45.30;;;28.20;;
15327;SDS011;7764;51.430;6.840;2023-02-15T03:24:01;49.93;;;28.03;;
15327;SDS011;7764;51.430;6.840;2023-02-15T03:26:33;53.37;;;30.07;;
15327;SDS011;7764;51.430;6.840;2023-02-15T03:29:02;50.93;;;31.03;;
15327;SDS011;7764;51.430;6.840;2023-02-15T03:31:32;44.77;;;27.90;;
15327;SDS011;7764;51.430;6.840;2023-02-15T03:34:04;46.10;;;28.37;;
15327;SDS011;7764;51.430;6.840;2023-02-15T03:36:36;59.63;;;30.50;;
15327;SDS011;7764;51.430;6.840;2023-02-15T03:39:10;47.87;;;28.93;;
15327;SDS011;7764;51.430;6.840;2023-02-15T03:41:44;47.13;;;29.37;;
15327;SDS011;7764;51.430;6.840;2023-02-15T03:44:17;50.97;;;29.23;;
15327;SDS011;7764;51.430;6.840;2023-02-15T03:46:52;49.70;;;28.90;;
15327;SDS011;7764;51.430;6.840;2023-02-15T03:49:26;48.03;;;30.03;;
15327;SDS011;7764;51.430;6.840;2023-02-15T03:51:57;50.33;;;29.17;;
15327;SDS011;7764;51.430;6.840;2023-02-15T03:54:28;49.57;;;27.70;;
15327;SDS011;7764;51.430;6.840;2023-02-15T03:57:10;68.27;;;43.17;;
15327;SDS011;7764;51.430;6.840;2023-02-15T03:59:56;66.13;;;40.83;;
15327;SDS011;7764;51.430;6.840;2023-02-15T04:02:43;53.87;;;34.70;;
15327;SDS011;7764;51.430;6.840;2023-02-15T04:05:27;54.00;;;29.80;;
15327;SDS011;7764;51.430;6.840;2023-02-15T04:07:54;49.53;;;28.40;;
15327;SDS011;7764;51.430;6.840;2023-02-15T04:10:21;48.03;;;28.73;;
15327;SDS011;7764;51.430;6.840;2023-02-15T04:13:05;57.00;;;35.20;;
15327;SDS011;7764;51.430;6.840;2023-02-15T04:15:32;53.63;;;31.73;;
15327;SDS011;7764;51.430;6.840;2023-02-15T04:18:16;55.00;;;29.97;;
15327;SDS011;7764;51.430;6.840;2023-02-15T04:20:45;48.07;;;28.60;;
15327;SDS011;7764;51.430;6.840;2023-02-15T04:23:30;51.27;;;28.57;;
15327;SDS011;7764;51.430;6.840;2023-02-15T04:26:15;50.13;;;30.13;;
15327;SDS011;7764;51.430;6.840;2023-02-15T04:28:42;53.63;;;31.67;;
15327;SDS011;7764;51.430;6.840;2023-02-15T04:31:08;53.00;;;31.23;;
15327;SDS011;7764;51.430;6.840;2023-02-15T04:33:35;65.63;;;41.03;;
15327;SDS011;7764;51.430;6.840;2023-02-15T04:36:04;58.40;;;33.10;;
15327;SDS011;7764;51.430;6.840;2023-02-15T04:38:31;53.03;;;31.07;;
15327;SDS011;7764;51.430;6.840;2023-02-15T04:40:58;50.90;;;30.10;;
15327;SDS011;7764;51.430;6.840;2023-02-15T04:43:25;55.37;;;31.43;;
15327;SDS011;7764;51.430;6.840;2023-02-15T04:45:52;52.13;;;30.37;;
15327;SDS011;7764;51.430;6.840;2023-02-15T04:48:18;47.67;;;29.70;;
15327;SDS011;7764;51.430;6.840;2023-02-15T04:50:45;55.63;;;31.30;;
15327;SDS011;7764;51.430;6.840;2023-02-15T04:53:13;51.40;;;30.10;;
15327;SDS011;7764;51.430;6.840;2023-02-15T04:55:42;51.13;;;29.13;;
15327;SDS011;7764;51.430;6.840;2023-02-15T04:58:09;48.03;;;29.67;;
15327;SDS011;7764;51.430;6.840;2023-02-15T05:00:35;52.10;;;30.47;;
15327;SDS011;7764;51.430;6.840;2023-02-15T05:03:02;51.50;;;29.90;;
15327;SDS011;7764;51.430;6.840;2023-02-15T05:05:29;53.33;;;29.70;;
15327;SDS011;7764;51.430;6.840;2023-02-15T05:07:56;49.20;;;30.40;;
15327;SDS011;7764;51.430;6.840;2023-02-15T05:10:24;46.87;;;29.40;;
15327;SDS011;7764;51.430;6.840;2023-02-15T05:12:51;52.07;;;30.70;;
15327;SDS011;7764;51.430;6.840;2023-02-15T05:15:18;53.70;;;29.70;;
15327;SDS011;7764;51.430;6.840;2023-02-15T05:17:45;50.73;;;30.07;;
15327;SDS011;7764;51.430;6.840;2023-02-15T05:20:12;50.00;;;29.03;;
15327;SDS011;7764;51.430;6.840;2023-02-15T05:22:38;49.10;;;28.87;;
15327;SDS011;7764;51.430;6.840;2023-02-15T05:25:06;52.30;;;29.20;;
15327;SDS011;7764;51.430;6.840;2023-02-15T05:27:53;54.07;;;30.80;;
15327;SDS011;7764;51.430;6.840;2023-02-15T05:30:37;49.30;;;28.87;;
15327;SDS011;7764;51.430;6.840;2023-02-15T05:33:05;50.57;;;30.13;;
15327;SDS011;7764;51.430;6.840;2023-02-15T05:35:32;51.83;;;29.57;;
15327;SDS011;7764;51.430;6.840;2023-02-15T05:37:59;49.20;;;29.43;;
15327;SDS011;7764;51.430;6.840;2023-02-15T05:40:26;49.57;;;28.43;;
15327;SDS011;7764;51.430;6.840;2023-02-15T05:42:54;46.30;;;27.70;;
15327;SDS011;7764;51.430;6.840;2023-02-15T05:45:22;51.93;;;30.23;;
15327;SDS011;7764;51.430;6.840;2023-02-15T05:47:49;52.73;;;29.13;;
15327;SDS011;7764;51.430;6.840;2023-02-15T05:50:16;49.90;;;28.40;;
15327;SDS011;7764;51.430;6.840;2023-02-15T05:52:44;49.80;;;31.13;;
15327;SDS011;7764;51.430;6.840;2023-02-15T05:55:11;50.47;;;28.63;;
15327;SDS011;7764;51.430;6.840;2023-02-15T05:57:37;79.97;;;43.87;;
15327;SDS011;7764;51.430;6.840;2023-02-15T06:00:06;66.63;;;44.13;;
15327;SDS011;7764;51.430;6.840;2023-02-15T06:02:34;50.13;;;28.90;;
15327;SDS011;7764;51.430;6.840;2023-02-15T06:05:01;44.63;;;27.63;;
15327;SDS011;7764;51.430;6.840;2023-02-15T06:07:29;49.93;;;29.57;;
15327;SDS011;7764;51.430;6.840;2023-02-15T06:09:56;47.90;;;28.73;;
15327;SDS011;7764;51.430;6.840;2023-02-15T06:12:23;55.70;;;32.13;;
15327;SDS011;7764;51.430;6.840;2023-02-15T06:14:50;50.60;;;30.63;;
15327;SDS011;7764;51.430;6.840;2023-02-15T06:17:19;52.33;;;31.70;;
15327;SDS011;7764;51.430;6.840;2023-02-15T06:19:46;49.13;;;29.60;;
15327;SDS011;7764;51.430;6.840;2023-02-15T06:22:14;51.40;;;29.87;;
15327;SDS011;7764;51.430;6.840;2023-02-15T06:24:41;51.93;;;30.53;;
15327;SDS011;7764;51.430;6.840;2023-02-15T06:27:08;49.80;;;29.73;;
15327;SDS011;7764;51.430;6.840;2023-02-15T06:29:35;49.23;;;28.53;;
15327;SDS011;7764;51.430;6.840;2023-02-15T06:32:02;48.27;;;29.03;;
15327;SDS011;7764;51.430;6.840;2023-02-15T06:34:30;52.43;;;29.37;;
15327;SDS011;7764;51.430;6.840;2023-02-15T06:36:57;47.30;;;27.60;;
15327;SDS011;7764;51.430;6.840;2023-02-15T06:39:24;45.43;;;27.47;;
15327;SDS011;7764;51.430;6.840;2023-02-15T06:41:51;49.13;;;28.00;;
15327;SDS011;7764;51.430;6.840;2023-02-15T06:44:18;45.73;;;27.13;;
15327;SDS011;7764;51.430;6.840;2023-02-15T06:46:45;86.77;;;51.03;;
15327;SDS011;7764;51.430;6.840;2023-02-15T06:49:12;46.27;;;28.87;;
15327;SDS011;7764;51.430;6.840;2023-02-15T06:51:40;46.23;;;26.47;;
15327;SDS011;7764;51.430;6.840;2023-02-15T06:54:07;54.83;;;28.90;;
15327;SDS011;7764;51.430;6.840;2023-02-15T06:56:34;48.77;;;28.70;;
15327;SDS011;7764;51.430;6.840;2023-02-15T06:59:01;48.00;;;28.93;;
15327;SDS011;7764;51.430;6.840;2023-02-15T07:01:28;48.47;;;28.63;;
15327;SDS011;7764;51.430;6.840;2023-02-15T07:03:55;52.87;;;29.00;;
15327;SDS011;7764;51.430;6.840;2023-02-15T07:06:22;50.90;;;29.90;;
15327;SDS011;7764;51.430;6.840;2023-02-15T07:08:50;46.47;;;27.77;;
15327;SDS011;7764;51.430;6.840;2023-02-15T07:11:17;47.53;;;27.17;;
15327;SDS011;7764;51.430;6.840;2023-02-15T07:14:01;45.90;;;27.07;;
15327;SDS011;7764;51.430;6.840;2023-02-15T07:16:28;44.97;;;26.87;;
15327;SDS011;7764;51.430;6.840;2023-02-15T07:18:54;42.33;;;25.50;;
15327;SDS011;7764;51.430;6.840;2023-02-15T07:21:21;46.73;;;26.53;;
15327;SDS011;7764;51.430;6.840;2023-02-15T07:23:49;46.50;;;25.13;;
15327;SDS011;7764;51.430;6.840;2023-02-15T07:26:16;44.97;;;26.80;;
15327;SDS011;7764;51.430;6.840;2023-02-15T07:28:43;44.03;;;26.13;;
15327;SDS011;7764;51.430;6.840;2023-02-15T07:31:10;45.77;;;26.00;;
15327;SDS011;7764;51.430;6.840;2023-02-15T07:33:37;45.17;;;25.93;;
15327;SDS011;7764;51.430;6.840;2023-02-15T07:36:04;41.77;;;25.80;;
15327;SDS011;7764;51.430;6.840;2023-02-15T07:38:32;42.87;;;25.70;;
15327;SDS011;7764;51.430;6.840;2023-02-15T07:41:02;43.67;;;25.20;;
15327;SDS011;7764;51.430;6.840;2023-02-15T07:43:32;41.20;;;25.83;;
15327;SDS011;7764;51.430;6.840;2023-02-15T07:45:59;39.93;;;24.97;;
15327;SDS011;7764;51.430;6.840;2023-02-15T07:48:27;41.30;;;25.30;;
15327;SDS011;7764;51.430;6.840;2023-02-15T07:50:54;42.93;;;26.67;;
15327;SDS011;7764;51.430;6.840;2023-02-15T07:53:24;44.13;;;25.77;;
15327;SDS011;7764;51.430;6.840;2023-02-15T07:55:51;41.77;;;25.13;;
15327;SDS011;7764;51.430;6.840;2023-02-15T07:58:19;39.77;;;24.10;;
15327;SDS011;7764;51.430;6.840;2023-02-15T08:01:06;40.30;;;24.40;;
15327;SDS011;7764;51.430;6.840;2023-02-15T08:03:33;61.33;;;37.80;;
15327;SDS011;7764;51.430;6.840;2023-02-15T08:06:00;38.70;;;23.90;;
15327;SDS011;7764;51.430;6.840;2023-02-15T08:08:27;39.43;;;24.13;;
15327;SDS011;7764;51.430;6.840;2023-02-15T08:10:57;40.90;;;23.87;;
15327;SDS011;7764;51.430;6.840;2023-02-15T08:13:44;40.13;;;23.97;;
15327;SDS011;7764;51.430;6.840;2023-02-15T08:16:24;37.80;;;23.60;;
15327;SDS011;7764;51.430;6.840;2023-02-15T08:18:53;39.77;;;23.83;;
15327;SDS011;7764;51.430;6.840;2023-02-15T08:21:20;38.73;;;23.87;;
15327;SDS011;7764;51.430;6.840;2023-02-15T08:23:48;37.77;;;22.23;;
15327;SDS011;7764;51.430;6.840;2023-02-15T08:26:15;41.30;;;23.53;;
15327;SDS011;7764;51.430;6.840;2023-02-15T08:28:44;34.17;;;21.90;;
15327;SDS011;7764;51.430;6.840;2023-02-15T08:31:11;36.00;;;22.07;;
15327;SDS011;7764;51.430;6.840;2023-02-15T08:33:39;37.27;;;22.43;;
15327;SDS011;7764;51.430;6.840;2023-02-15T08:36:08;36.50;;;22.33;;
15327;SDS011;7764;51.430;6.840;2023-02-15T08:38:36;34.57;;;21.73;;
15327;SDS011;7764;51.430;6.840;2023-02-15T08:41:10;36.60;;;22.57;;
15327;SDS011;7764;51.430;6.840;2023-02-15T08:43:38;36.90;;;22.90;;
15327;SDS011;7764;51.430;6.840;2023-02-15T08:46:07;35.33;;;21.50;;
15327;SDS011;7764;51.430;6.840;2023-02-15T08:48:35;33.67;;;20.37;;
15327;SDS011;7764;51.430;6.840;2023-02-15T08:51:05;34.17;;;20.87;;
15327;SDS011;7764;51.430;6.840;2023-02-15T08:53:35;33.57;;;20.90;;
15327;SDS011;7764;51.430;6.840;2023-02-15T08:56:02;37.53;;;22.13;;
15327;SDS011;7764;51.430;6.840;2023-02-15T08:58:30;34.03;;;23.53;;
15327;SDS011;7764;51.430;6.840;2023-02-15T09:00:57;33.83;;;21.23;;
15327;SDS011;7764;51.430;6.840;2023-02-15T09:03:25;32.93;;;20.47;;
15327;SDS011;7764;51.430;6.840;2023-02-15T09:05:56;32.10;;;19.70;;
15327;SDS011;7764;51.430;6.840;2023-02-15T09:08:24;31.47;;;20.10;;
15327;SDS011;7764;51.430;6.840;2023-02-15T09:10:51;42.90;;;26.60;;
15327;SDS011;7764;51.430;6.840;2023-02-15T09:13:18;33.97;;;21.63;;
15327;SDS011;7764;51.430;6.840;2023-02-15T09:15:46;33.60;;;21.00;;
15327;SDS011;7764;51.430;6.840;2023-02-15T09:18:12;36.17;;;21.23;;
15327;SDS011;7764;51.430;6.840;2023-02-15T09:20:43;31.63;;;19.57;;
15327;SDS011;7764;51.430;6.840;2023-02-15T09:23:10;31.50;;;20.17;;
15327;SDS011;7764;51.430;6.840;2023-02-15T09:25:39;31.37;;;20.27;;
15327;SDS011;7764;51.430;6.840;2023-02-15T09:28:07;29.90;;;19.53;;
15327;SDS011;7764;51.430;6.840;2023-02-15T09:30:34;33.63;;;19.70;;
15327;SDS011;7764;51.430;6.840;2023-02-15T09:33:01;30.70;;;19.27;;
15327;SDS011;7764;51.430;6.840;2023-02-15T09:35:28;32.63;;;18.93;;
15327;SDS011;7764;51.430;6.840;2023-02-15T09:37:56;29.90;;;18.77;;
15327;SDS011;7764;51.430;6.840;2023-02-15T09:40:23;29.33;;;18.50;;
15327;SDS011;7764;51.430;6.840;2023-02-15T09:42:53;26.50;;;17.33;;
15327;SDS011;7764;51.430;6.840;2023-02-15T09:48:34;27.07;;;18.67;;
15327;SDS011;7764;51.430;6.840;2023-02-15T09:51:31;31.33;;;19.80;;
15327;SDS011;7764;51.430;6.840;2023-02-15T09:54:15;32.93;;;17.97;;
15327;SDS011;7764;51.430;6.840;2023-02-15T09:56:53;34.90;;;21.80;;
15327;SDS011;7764;51.430;6.840;2023-02-15T09:59:26;30.37;;;18.43;;
15327;SDS011;7764;51.430;6.840;2023-02-15T10:02:03;31.53;;;20.37;;
15327;SDS011;7764;51.430;6.840;2023-02-15T10:04:50;29.93;;;18.33;;
15327;SDS011;7764;51.430;6.840;2023-02-15T10:07:30;29.93;;;17.70;;
15327;SDS011;7764;51.430;6.840;2023-02-15T10:10:21;26.33;;;17.67;;
15327;SDS011;7764;51.430;6.840;2023-02-15T10:12:57;28.53;;;17.83;;
15327;SDS011;7764;51.430;6.840;2023-02-15T10:15:38;27.63;;;17.97;;
15327;SDS011;7764;51.430;6.840;2023-02-15T10:18:25;29.77;;;18.77;;
15327;SDS011;7764;51.430;6.840;2023-02-15T10:21:03;28.27;;;18.13;;
15327;SDS011;7764;51.430;6.840;2023-02-15T10:23:41;28.30;;;18.93;;
15327;SDS011;7764;51.430;6.840;2023-02-15T10:26:22;25.33;;;16.47;;
15327;SDS011;7764;51.430;6.840;2023-02-15T10:28:55;28.03;;;17.27;;
15327;SDS011;7764;51.430;6.840;2023-02-15T10:31:27;27.20;;;18.00;;
15327;SDS011;7764;51.430;6.840;2023-02-15T10:34:04;31.83;;;18.10;;
15327;SDS011;7764;51.430;6.840;2023-02-15T10:36:44;27.93;;;17.60;;
15327;SDS011;7764;51.430;6.840;2023-02-15T10:39:20;25.97;;;17.40;;
15327;SDS011;7764;51.430;6.840;2023-02-15T10:41:53;26.30;;;17.97;;
15327;SDS011;7764;51.430;6.840;2023-02-15T10:44:34;24.90;;;17.03;;
15327;SDS011;7764;51.430;6.840;2023-02-15T10:47:20;26.87;;;17.70;;
15327;SDS011;7764;51.430;6.840;2023-02-15T10:50:09;26.33;;;17.27;;
15327;SDS011;7764;51.430;6.840;2023-02-15T10:52:51;27.67;;;17.00;;
15327;SDS011;7764;51.430;6.840;2023-02-15T10:55:32;25.53;;;17.43;;
15327;SDS011;7764;51.430;6.840;2023-02-15T10:58:11;30.90;;;17.70;;
15327;SDS011;7764;51.430;6.840;2023-02-15T11:00:44;28.40;;;17.60;;
15327;SDS011;7764;51.430;6.840;2023-02-15T11:03:24;29.33;;;17.80;;
15327;SDS011;7764;51.430;6.840;2023-02-15T11:06:03;26.03;;;16.57;;
15327;SDS011;7764;51.430;6.840;2023-02-15T11:08:36;24.40;;;16.80;;
15327;SDS011;7764;51.430;6.840;2023-02-15T11:11:07;25.70;;;16.47;;
15327;SDS011;7764;51.430;6.840;2023-02-15T11:13:38;28.40;;;16.83;;
15327;SDS011;7764;51.430;6.840;2023-02-15T11:16:08;25.07;;;16.83;;
15327;SDS011;7764;51.430;6.840;2023-02-15T11:18:41;23.87;;;16.40;;
15327;SDS011;7764;51.430;6.840;2023-02-15T11:21:17;29.37;;;17.60;;
15327;SDS011;7764;51.430;6.840;2023-02-15T11:23:48;26.87;;;16.30;;
15327;SDS011;7764;51.430;6.840;2023-02-15T11:26:16;27.43;;;17.00;;
15327;SDS011;7764;51.430;6.840;2023-02-15T11:28:51;25.50;;;16.07;;
15327;SDS011;7764;51.430;6.840;2023-02-15T11:31:20;29.70;;;18.00;;
15327;SDS011;7764;51.430;6.840;2023-02-15T11:33:49;24.30;;;16.80;;
15327;SDS011;7764;51.430;6.840;2023-02-15T11:36:20;25.43;;;16.90;;
15327;SDS011;7764;51.430;6.840;2023-02-15T11:38:51;27.70;;;16.70;;
15327;SDS011;7764;51.430;6.840;2023-02-15T11:41:22;24.73;;;15.70;;
15327;SDS011;7764;51.430;6.840;2023-02-15T11:43:56;24.70;;;15.50;;
15327;SDS011;7764;51.430;6.840;2023-02-15T11:46:26;38.17;;;22.97;;
15327;SDS011;7764;51.430;6.840;2023-02-15T11:48:53;25.97;;;16.27;;
15327;SDS011;7764;51.430;6.840;2023-02-15T11:51:21;23.43;;;15.73;;
15327;SDS011;7764;51.430;6.840;2023-02-15T11:53:49;25.90;;;16.27;;
15327;SDS011;7764;51.430;6.840;2023-02-15T11:56:17;23.93;;;16.10;;
15327;SDS011;7764;51.430;6.840;2023-02-15T11:58:47;23.00;;;15.00;;
15327;SDS011;7764;51.430;6.840;2023-02-15T12:01:21;26.73;;;15.87;;
15327;SDS011;7764;51.430;6.840;2023-02-15T12:03:56;25.17;;;15.40;;
15327;SDS011;7764;51.430;6.840;2023-02-15T12:06:28;22.37;;;15.43;;
15327;SDS011;7764;51.430;6.840;2023-02-15T12:08:59;24.30;;;15.00;;
15327;SDS011;7764;51.430;6.840;2023-02-15T12:11:33;24.13;;;15.63;;
15327;SDS011;7764;51.430;6.840;2023-02-15T12:14:02;27.23;;;14.90;;
15327;SDS011;7764;51.430;6.840;2023-02-15T12:16:34;23.03;;;14.83;;
15327;SDS011;7764;51.430;6.840;2023-02-15T12:19:12;22.63;;;15.30;;
15327;SDS011;7764;51.430;6.840;2023-02-15T12:21:57;27.70;;;15.83;;
15327;SDS011;7764;51.430;6.840;2023-02-15T12:24:26;23.73;;;14.87;;
15327;SDS011;7764;51.430;6.840;2023-02-15T12:26:56;33.70;;;21.97;;
15327;SDS011;7764;51.430;6.840;2023-02-15T12:29:26;34.53;;;23.43;;
15327;SDS011;7764;51.430;6.840;2023-02-15T12:31:58;26.27;;;17.40;;
15327;SDS011;7764;51.430;6.840;2023-02-15T12:34:27;30.33;;;19.43;;
15327;SDS011;7764;51.430;6.840;2023-02-15T12:36:57;24.83;;;15.40;;
15327;SDS011;7764;51.430;6.840;2023-02-15T12:39:28;25.83;;;15.27;;
15327;SDS011;7764;51.430;6.840;2023-02-15T12:42:00;25.27;;;15.30;;
15327;SDS011;7764;51.430;6.840;2023-02-15T12:44:40;24.77;;;16.47;;
15327;SDS011;7764;51.430;6.840;2023-02-15T12:47:21;34.77;;;18.10;;
15327;SDS011;7764;51.430;6.840;2023-02-15T12:50:03;26.20;;;14.70;;
15327;SDS011;7764;51.430;6.840;2023-02-15T12:52:33;22.67;;;14.47;;
15327;SDS011;7764;51.430;6.840;2023-02-15T12:55:09;23.63;;;14.63;;
15327;SDS011;7764;51.430;6.840;2023-02-15T12:57:43;21.07;;;13.73;;
15327;SDS011;7764;51.430;6.840;2023-02-15T13:00:26;23.40;;;14.50;;
15327;SDS011;7764;51.430;6.840;2023-02-15T13:02:58;21.57;;;13.77;;
15327;SDS011;7764;51.430;6.840;2023-02-15T13:05:28;25.23;;;14.53;;
15327;SDS011;7764;51.430;6.840;2023-02-15T13:08:00;22.87;;;14.07;;
15327;SDS011;7764;51.430;6.840;2023-02-15T13:10:31;24.20;;;14.27;;
15327;SDS011;7764;51.430;6.840;2023-02-15T13:13:01;21.93;;;13.17;;
15327;SDS011;7764;51.430;6.840;2023-02-15T13:15:37;22.63;;;13.73;;
15327;SDS011;7764;51.430;6.840;2023-02-15T13:18:10;24.53;;;14.03;;
15327;SDS011;7764;51.430;6.840;2023-02-15T13:20:40;20.17;;;12.93;;
15327;SDS011;7764;51.430;6.840;2023-02-15T13:23:13;21.47;;;12.80;;
15327;SDS011;7764;51.430;6.840;2023-02-15T13:25:52;21.97;;;12.97;;
15327;SDS011;7764;51.430;6.840;2023-02-15T13:28:22;23.83;;;14.33;;
15327;SDS011;7764;51.430;6.840;2023-02-15T13:30:53;21.73;;;12.63;;
15327;SDS011;7764;51.430;6.840;2023-02-15T13:33:23;22.67;;;13.30;;
15327;SDS011;7764;51.430;6.840;2023-02-15T13:35:57;30.43;;;19.23;;
15327;SDS011;7764;51.430;6.840;2023-02-15T13:38:46;24.83;;;13.23;;
15327;SDS011;7764;51.430;6.840;2023-02-15T13:41:19;22.40;;;12.53;;
15327;SDS011;7764;51.430;6.840;2023-02-15T13:43:53;25.00;;;13.33;;
15327;SDS011;7764;51.430;6.840;2023-02-15T13:46:34;23.73;;;13.43;;
15327;SDS011;7764;51.430;6.840;2023-02-15T13:49:25;25.00;;;13.77;;
15327;SDS011;7764;51.430;6.840;2023-02-15T13:52:03;34.70;;;14.30;;
15327;SDS011;7764;51.430;6.840;2023-02-15T13:54:43;27.00;;;13.87;;
15327;SDS011;7764;51.430;6.840;2023-02-15T13:57:35;24.50;;;13.73;;
15327;SDS011;7764;51.430;6.840;2023-02-15T14:00:25;24.77;;;13.10;;
15327;SDS011;7764;51.430;6.840;2023-02-15T14:03:10;24.10;;;13.30;;
15327;SDS011;7764;51.430;6.840;2023-02-15T14:06:02;22.13;;;12.87;;
15327;SDS011;7764;51.430;6.840;2023-02-15T14:08:44;25.63;;;13.07;;
15327;SDS011;7764;51.430;6.840;2023-02-15T14:11:21;21.73;;;12.57;;
15327;SDS011;7764;51.430;6.840;2023-02-15T14:14:01;23.67;;;14.00;;
15327;SDS011;7764;51.430;6.840;2023-02-15T14:16:51;22.70;;;12.87;;
15327;SDS011;7764;51.430;6.840;2023-02-15T14:19:28;25.37;;;12.73;;
15327;SDS011;7764;51.430;6.840;2023-02-15T14:22:05;23.97;;;13.30;;
15327;SDS011;7764;51.430;6.840;2023-02-15T14:24:39;25.27;;;13.00;;
15327;SDS011;7764;51.430;6.840;2023-02-15T14:27:13;26.17;;;13.37;;
15327;SDS011;7764;51.430;6.840;2023-02-15T14:29:49;22.80;;;13.30;;
15327;SDS011;7764;51.430;6.840;2023-02-15T14:32:20;21.97;;;12.33;;
15327;SDS011;7764;51.430;6.840;2023-02-15T14:34:53;30.37;;;17.93;;
15327;SDS011;7764;51.430;6.840;2023-02-15T14:37:26;55.10;;;32.10;;
15327;SDS011;7764;51.430;6.840;2023-02-15T14:40:02;27.63;;;14.57;;
15327;SDS011;7764;51.430;6.840;2023-02-15T14:42:53;23.77;;;12.83;;
15327;SDS011;7764;51.430;6.840;2023-02-15T14:45:26;22.67;;;12.80;;
15327;SDS011;7764;51.430;6.840;2023-02-15T14:48:01;41.37;;;25.07;;
15327;SDS011;7764;51.430;6.840;2023-02-15T14:50:44;26.93;;;14.20;;
15327;SDS011;7764;51.430;6.840;2023-02-15T14:53:24;27.67;;;15.80;;
15327;SDS011;7764;51.430;6.840;2023-02-15T15:01:51;26.17;;;13.60;;
15327;SDS011;7764;51.430;6.840;2023-02-15T15:04:23;23.37;;;13.87;;
15327;SDS011;7764;51.430;6.840;2023-02-15T15:06:58;21.47;;;12.47;;
15327;SDS011;7764;51.430;6.840;2023-02-15T15:09:30;25.50;;;13.83;;
15327;SDS011;7764;51.430;6.840;2023-02-15T15:12:13;23.00;;;12.93;;
15327;SDS011;7764;51.430;6.840;2023-02-15T15:15:02;38.13;;;17.70;;
15327;SDS011;7764;51.430;6.840;2023-02-15T15:20:40;23.27;;;13.53;;